Time;durP1;ratioP1;P1;durP2;ratioP2;P2;SDS_P1;SDS_P2;PMS_P1;PMS_P2;Temp;Humidity;BMP_temperature;BMP_pressure;BME280_temperature;BME280_humidity;BME280_pressure;Samples;Min_cycle;Max_cycle;Signal;HPM_P1;HPM_P2
2021/12/20 00:01:52;;;;;;;64.83;12.33;;;2.80;99.90;;;;;;5028597;28;20220;-48
2021/12/20 00:04:17;;;;;;;103.77;17.13;;;2.20;99.90;;;;;;5028028;28;20736;-48
2021/12/20 00:06:43;;;;;;;86.70;14.57;;;2.30;99.90;;;;;;5023625;28;20565;-48
2021/12/20 00:09:08;;;;;;;60.80;11.20;;;2.20;99.90;;;;;;5029329;28;20191;-49
2021/12/20 00:11:34;;;;;;;50.70;9.70;;;2.50;99.90;;;;;;5028579;28;20286;-49
2021/12/20 00:13:59;;;;;;;142.83;20.83;;;2.10;99.90;;;;;;5026209;28;20191;-48
2021/12/20 00:16:25;;;;;;;55.30;9.97;;;2.50;99.90;;;;;;5032018;28;20190;-48
2021/12/20 00:18:51;;;;;;;38.27;8.17;;;2.10;99.90;;;;;;5030711;28;20802;-48
2021/12/20 00:21:17;;;;;;;83.13;14.53;;;;;;;;;;5031664;28;20179;-48
2021/12/20 00:23:43;;;;;;;48.97;10.07;;;2.10;99.90;;;;;;5026846;28;20581;-48
2021/12/20 00:26:09;;;;;;;62.93;12.07;;;2.00;99.90;;;;;;5024869;28;20588;-48
2021/12/20 00:28:36;;;;;;;84.33;14.60;;;2.10;99.90;;;;;;5023350;28;20298;-48
2021/12/20 00:31:01;;;;;;;42.70;9.33;;;2.00;99.90;;;;;;5026497;28;20910;-48
2021/12/20 00:33:33;;;;;;;95.10;15.83;;;2.00;99.90;;;;;;5030730;28;20215;-48
2021/12/20 00:35:59;;;;;;;52.53;10.37;;;2.10;99.90;;;;;;5028978;28;20557;-48
2021/12/20 00:41:08;;;;;;;53.27;10.13;;;2.20;99.90;;;;;;5030838;28;20203;-48
2021/12/20 00:43:34;;;;;;;95.70;16.07;;;2.00;99.90;;;;;;5022278;28;20196;-49
2021/12/20 00:45:59;;;;;;;60.97;11.17;;;2.10;99.90;;;;;;5026593;28;20203;-49
2021/12/20 00:48:25;;;;;;;22.47;6.57;;;2.10;99.90;;;;;;5025389;28;20430;-48
2021/12/20 00:50:50;;;;;;;59.80;11.40;;;1.90;99.90;;;;;;5024553;28;21018;-48
2021/12/20 00:53:16;;;;;;;80.80;13.80;;;1.90;99.90;;;;;;5026685;28;20691;-49
2021/12/20 00:55:42;;;;;;;61.27;11.67;;;2.00;99.90;;;;;;5019629;28;20315;-49
2021/12/20 00:58:07;;;;;;;62.70;11.83;;;2.00;99.90;;;;;;5023403;28;20192;-49
2021/12/20 01:00:35;;;;;;;50.47;9.17;;;1.80;99.90;;;;;;5025874;28;21017;-49
2021/12/20 01:03:02;;;;;;;70.67;13.03;;;2.00;99.90;;;;;;5025857;28;20553;-49
2021/12/20 01:05:28;;;;;;;32.00;7.43;;;1.90;99.90;;;;;;5031671;28;20204;-48
2021/12/20 01:07:58;;;;;;;78.87;13.53;;;1.90;99.90;;;;;;5026854;28;20195;-48
2021/12/20 01:10:25;;;;;;;46.17;9.47;;;1.80;99.90;;;;;;5036373;28;20239;-48
2021/12/20 01:12:53;;;;;;;53.80;10.77;;;1.70;99.90;;;;;;5025184;28;20231;-48
2021/12/20 01:15:25;;;;;;;65.60;11.53;;;1.90;99.90;;;;;;5020364;28;20629;-48
2021/12/20 01:17:52;;;;;;;71.23;11.60;;;2.10;99.90;;;;;;5025862;28;20449;-48
2021/12/20 01:20:18;;;;;;;74.67;12.10;;;2.00;99.90;;;;;;5027736;28;20231;-48
2021/12/20 01:22:46;;;;;;;110.27;17.63;;;1.80;99.90;;;;;;5025392;28;20838;-48
2021/12/20 01:25:12;;;;;;;64.10;11.97;;;1.40;99.90;;;;;;5026075;28;20601;-49
2021/12/20 01:27:38;;;;;;;59.07;11.37;;;1.90;99.90;;;;;;5026841;28;20242;-48
2021/12/20 01:30:06;;;;;;;96.17;15.60;;;1.60;99.90;;;;;;5023067;28;20176;-49
2021/12/20 01:32:32;;;;;;;62.20;11.33;;;1.60;99.90;;;;;;5026108;28;20217;-48
2021/12/20 01:34:57;;;;;;;65.40;12.07;;;1.60;99.90;;;;;;5024465;28;20188;-48
2021/12/20 01:37:23;;;;;;;52.47;9.93;;;1.90;99.90;;;;;;5030591;28;20195;-48
2021/12/20 01:39:49;;;;;;;100.73;16.50;;;1.60;99.90;;;;;;5025669;28;20184;-48
2021/12/20 01:42:18;;;;;;;72.37;13.07;;;1.50;99.90;;;;;;5021214;28;20214;-48
2021/12/20 01:44:45;;;;;;;46.63;9.77;;;1.70;99.90;;;;;;5022772;28;20196;-48
2021/12/20 01:47:12;;;;;;;57.13;10.80;;;1.80;99.90;;;;;;5023663;28;20258;-48
2021/12/20 01:49:52;;;;;;;61.30;11.13;;;;;;;;;;5028334;28;20178;-48
2021/12/20 01:52:20;;;;;;;56.87;10.47;;;1.50;99.90;;;;;;5022919;28;20211;-48
2021/12/20 01:54:46;;;;;;;105.57;16.87;;;1.40;99.90;;;;;;5024383;28;20528;-48
2021/12/20 01:57:11;;;;;;;55.40;10.60;;;1.50;99.90;;;;;;5028882;28;20270;-48
2021/12/20 01:59:40;;;;;;;48.80;9.83;;;1.60;99.90;;;;;;5024235;28;20273;-48
2021/12/20 02:02:06;;;;;;;51.00;10.37;;;1.30;99.90;;;;;;5019069;28;20492;-49
2021/12/20 02:04:41;;;;;;;55.53;11.20;;;1.50;99.90;;;;;;5021048;28;20677;-48
2021/12/20 02:07:07;;;;;;;84.03;14.20;;;1.50;99.90;;;;;;5021640;28;20194;-48
2021/12/20 02:09:32;;;;;;;49.33;10.13;;;1.50;99.90;;;;;;5024755;28;20540;-48
2021/12/20 02:11:59;;;;;;;34.90;7.90;;;1.40;99.90;;;;;;5019510;28;20691;-48
2021/12/20 02:14:25;;;;;;;67.13;11.50;;;1.50;99.90;;;;;;5022055;28;20183;-48
2021/12/20 02:16:50;;;;;;;109.50;16.80;;;1.30;99.90;;;;;;5023493;28;20275;-48
2021/12/20 02:19:17;;;;;;;52.50;9.87;;;1.30;99.90;;;;;;5026182;28;20236;-49
2021/12/20 02:21:47;;;;;;;51.30;10.60;;;1.30;99.90;;;;;;5025785;28;20208;-49
2021/12/20 02:24:13;;;;;;;72.23;13.07;;;1.30;99.90;;;;;;5026047;28;20198;-48
2021/12/20 02:26:39;;;;;;;76.50;13.53;;;1.20;99.90;;;;;;5027384;28;20875;-48
2021/12/20 02:29:08;;;;;;;106.67;17.27;;;1.20;99.90;;;;;;5018557;28;20242;-48
2021/12/20 02:39:48;;;;;;;29.30;7.53;;;1.50;99.90;;;;;;5019924;28;20314;-48
2021/12/20 02:42:15;;;;;;;33.53;7.97;;;1.10;99.90;;;;;;5017122;28;20295;-48
2021/12/20 02:45:04;;;;;;;121.93;18.63;;;1.20;99.90;;;;;;5024841;28;20204;-48
2021/12/20 02:47:30;;;;;;;23.73;7.23;;;1.10;99.90;;;;;;5035661;28;20262;-48
2021/12/20 02:49:57;;;;;;;76.37;13.87;;;1.20;99.90;;;;;;5033448;28;20678;-48
2021/12/20 02:52:23;;;;;;;81.60;14.17;;;1.10;99.90;;;;;;5026939;28;20361;-48
2021/12/20 02:54:49;;;;;;;58.90;10.93;;;;;;;;;;5024078;28;20247;-48
2021/12/20 02:57:15;;;;;;;53.07;9.70;;;;;;;;;;5012904;28;20188;-48
2021/12/20 02:59:41;;;;;;;53.40;9.87;;;;;;;;;;5026436;28;20188;-48
2021/12/20 03:02:10;;;;;;;81.73;14.03;;;;;;;;;;5025448;28;20651;-48
2021/12/20 03:04:40;;;;;;;121.33;18.93;;;;;;;;;;5017843;28;20204;-49
2021/12/20 03:07:10;;;;;;;69.37;12.30;;;;;;;;;;5026161;28;20188;-48
2021/12/20 03:09:38;;;;;;;56.13;10.40;;;;;;;;;;5024718;28;20275;-48
2021/12/20 03:12:10;;;;;;;83.97;14.27;;;0.90;99.90;;;;;;5027695;28;20289;-48
2021/12/20 03:14:41;;;;;;;67.47;11.57;;;1.00;99.90;;;;;;5021425;28;20198;-48
2021/12/20 03:17:09;;;;;;;68.63;12.03;;;0.90;99.90;;;;;;5025892;28;20632;-48
2021/12/20 03:19:35;;;;;;;39.83;8.57;;;0.90;99.90;;;;;;5024844;28;20329;-48
2021/12/20 03:22:01;;;;;;;85.13;14.13;;;1.10;99.90;;;;;;5029650;28;20298;-48
2021/12/20 03:24:27;;;;;;;52.07;10.63;;;1.00;99.90;;;;;;5023452;28;20767;-48
2021/12/20 03:26:53;;;;;;;37.53;8.63;;;1.10;99.90;;;;;;5028242;28;20187;-48
2021/12/20 03:29:19;;;;;;;90.10;15.10;;;1.00;99.90;;;;;;5018892;28;20234;-48
2021/12/20 03:31:44;;;;;;;57.27;10.47;;;1.10;99.90;;;;;;5026458;28;20513;-48
2021/12/20 03:34:13;;;;;;;50.17;9.60;;;1.20;99.90;;;;;;5028300;28;20380;-48
2021/12/20 03:36:39;;;;;;;47.13;9.17;;;0.90;99.90;;;;;;5029531;28;20187;-48
2021/12/20 03:39:07;;;;;;;49.27;9.20;;;1.00;99.90;;;;;;5036415;28;20274;-48
2021/12/20 03:41:33;;;;;;;75.63;13.30;;;;;;;;;;5026920;28;20176;-48
2021/12/20 03:43:59;;;;;;;82.50;14.53;;;0.90;99.90;;;;;;5028559;28;20199;-48
2021/12/20 03:46:25;;;;;;;49.93;10.17;;;1.10;99.90;;;;;;5035949;28;20208;-48
2021/12/20 03:48:51;;;;;;;195.83;31.43;;;0.80;99.90;;;;;;5027974;28;20610;-48
2021/12/20 03:51:17;;;;;;;189.30;25.03;;;;;;;;;;5032591;22;20232;-49
2021/12/20 03:53:43;;;;;;;84.30;11.83;;;0.30;99.90;;;;;;5024926;28;20256;-49
2021/12/20 03:56:09;;;;;;;69.00;10.07;;;;;;;;;;5026644;28;20195;-49
2021/12/20 03:58:35;;;;;;;90.43;12.83;;;0.90;99.90;;;;;;5027177;28;21146;-50
2021/12/20 04:01:05;;;;;;;85.37;15.73;;;1.10;99.90;;;;;;5031341;28;20198;-50
2021/12/20 04:03:34;;;;;;;108.10;14.53;;;;;;;;;;5031085;28;20199;-49
2021/12/20 04:06:00;;;;;;;72.57;10.03;;;;;;;;;;5026947;28;20621;-49
2021/12/20 04:08:26;;;;;;;85.67;13.13;;;;;;;;;;5026826;28;20172;-49
2021/12/20 04:10:52;;;;;;;69.07;12.40;;;;;;;;;;5031523;28;20207;-49
2021/12/20 04:13:18;;;;;;;136.20;20.87;;;;;;;;;;5028279;28;20243;-49
2021/12/20 04:15:44;;;;;;;111.43;23.07;;;;;;;;;;5029738;28;20224;-49
2021/12/20 04:18:09;;;;;;;80.43;10.57;;;0.80;99.90;;;;;;5029763;28;20183;-49
2021/12/20 04:20:35;;;;;;;76.57;10.33;;;0.80;99.90;;;;;;5032403;28;20184;-49
2021/12/20 04:23:01;;;;;;;88.10;13.27;;;;;;;;;;5025262;28;20235;-49
2021/12/20 04:25:27;;;;;;;126.33;25.67;;;;;;;;;;5024464;28;20212;-48
2021/12/20 04:27:53;;;;;;;82.30;13.97;;;;;;;;;;5028190;28;20587;-49
2021/12/20 04:30:19;;;;;;;90.07;13.57;;;;;;;;;;5028677;28;20267;-49
2021/12/20 04:32:46;;;;;;;92.20;15.47;;;0.80;99.90;;;;;;5015130;28;20942;-49
2021/12/20 04:35:14;;;;;;;60.20;9.43;;;0.70;99.90;;;;;;5030732;28;20521;-49
2021/12/20 04:37:43;;;;;;;135.83;18.73;;;0.80;99.90;;;;;;5027358;28;20525;-50
2021/12/20 04:40:14;;;;;;;143.20;19.03;;;;;;;;;;5020049;28;20187;-49
2021/12/20 04:42:40;;;;;;;72.33;11.27;;;;;;;;;;5029220;28;20552;-49
2021/12/20 04:47:58;;;;;;;91.87;13.93;;;;;;;;;;5059646;28;20725;-48
2021/12/20 04:57:27;;;;;;;89.80;10.60;;;;;;;;;;5045432;27;20602;-48
2021/12/20 04:59:52;;;;;;;93.03;10.37;;;1.30;99.90;;;;;;5033246;28;20183;-49
2021/12/20 05:02:18;;;;;;;90.53;10.17;;;0.80;99.90;;;;;;5035988;28;20273;-49
2021/12/20 05:04:43;;;;;;;59.03;6.93;;;0.80;99.90;;;;;;5037564;28;20237;-49
2021/12/20 05:07:09;;;;;;;105.80;12.27;;;1.40;99.90;;;;;;5030683;28;20196;-49
2021/12/20 05:09:39;;;;;;;72.17;8.93;;;2.50;99.90;;;;;;5036138;28;20187;-49
2021/12/20 05:12:13;;;;;;;77.47;9.83;;;0.90;99.90;;;;;;5037043;28;20361;-49
2021/12/20 05:14:42;;;;;;;58.53;7.50;;;0.90;99.90;;;;;;5033216;28;20172;-49
2021/12/20 05:17:10;;;;;;;97.80;12.10;;;1.00;99.90;;;;;;5035804;28;20187;-49
2021/12/20 05:19:35;;;;;;;50.83;6.60;;;0.90;99.90;;;;;;5038746;28;20321;-48
2021/12/20 05:22:01;;;;;;;40.23;5.37;;;0.90;99.90;;;;;;5037140;28;20504;-49
2021/12/20 05:24:26;;;;;;;64.80;8.20;;;1.00;99.90;;;;;;5030161;28;20191;-49
2021/12/20 05:26:52;;;;;;;56.60;7.20;;;1.20;99.90;;;;;;5033736;28;20207;-49
2021/12/20 05:29:17;;;;;;;61.57;8.80;;;1.10;99.90;;;;;;5035863;28;20192;-49
2021/12/20 05:31:43;;;;;;;65.50;9.60;;;0.80;99.90;;;;;;5037508;28;20214;-49
2021/12/20 05:34:09;;;;;;;88.17;11.53;;;1.10;99.90;;;;;;5026974;28;20548;-49
2021/12/20 05:36:34;;;;;;;66.73;8.73;;;0.40;99.90;;;;;;5035174;28;20212;-49
2021/12/20 05:39:00;;;;;;;63.10;8.07;;;0.60;99.90;;;;;;5032428;28;20187;-49
2021/12/20 05:41:26;;;;;;;79.93;10.53;;;;;;;;;;5033176;28;20212;-49
2021/12/20 05:43:52;;;;;;;108.07;14.03;;;-0.60;99.90;;;;;;5029612;28;20206;-49
2021/12/20 05:46:17;;;;;;;65.67;8.53;;;1.10;99.90;;;;;;5036516;28;20635;-49
2021/12/20 05:48:43;;;;;;;78.40;10.17;;;1.00;99.90;;;;;;5032856;28;20735;-49
2021/12/20 05:51:09;;;;;;;76.37;9.93;;;0.60;99.90;;;;;;5033218;28;20180;-49
2021/12/20 05:53:34;;;;;;;79.30;10.27;;;0.50;99.90;;;;;;5032308;28;20219;-48
2021/12/20 05:56:00;;;;;;;56.13;7.43;;;0.80;99.90;;;;;;5034555;28;20222;-49
2021/12/20 05:58:26;;;;;;;96.53;12.20;;;0.80;99.90;;;;;;5035565;28;20180;-48
2021/12/20 06:00:51;;;;;;;54.93;7.30;;;0.50;99.90;;;;;;5032701;28;20180;-49
2021/12/20 06:03:17;;;;;;;54.03;7.30;;;0.50;99.90;;;;;;5037897;28;20279;-48
2021/12/20 06:05:43;;;;;;;56.03;7.40;;;0.50;99.90;;;;;;5036711;28;20231;-48
2021/12/20 06:08:09;;;;;;;87.47;11.27;;;0.70;99.90;;;;;;5022345;28;21268;-49
2021/12/20 06:10:36;;;;;;;45.17;6.40;;;0.40;99.90;;;;;;5016282;28;20197;-49
2021/12/20 06:13:05;;;;;;;79.33;10.03;;;0.50;99.90;;;;;;5013477;28;20219;-48
2021/12/20 06:15:31;;;;;;;65.93;8.53;;;0.40;99.90;;;;;;5014201;28;20684;-48
2021/12/20 06:17:57;;;;;;;79.87;9.93;;;0.60;99.90;;;;;;5022243;28;20177;-49
2021/12/20 06:20:23;;;;;;;78.63;10.17;;;0.30;99.90;;;;;;5018359;28;20675;-49
2021/12/20 06:22:48;;;;;;;52.90;7.20;;;0.30;99.90;;;;;;5015809;28;20205;-49
2021/12/20 06:25:15;;;;;;;47.43;6.43;;;0.40;99.90;;;;;;5016653;28;20172;-49
2021/12/20 06:27:40;;;;;;;45.63;6.13;;;0.50;99.90;;;;;;5023643;28;20180;-49
2021/12/20 06:30:10;;;;;;;71.27;9.07;;;0.40;99.90;;;;;;5020291;28;20590;-49
2021/12/20 06:32:38;;;;;;;55.40;7.33;;;0.50;99.90;;;;;;5020316;28;20208;-49
2021/12/20 06:35:05;;;;;;;57.10;7.53;;;0.50;99.90;;;;;;5016162;28;20192;-49
2021/12/20 06:37:31;;;;;;;55.07;7.13;;;0.50;99.90;;;;;;5014458;28;20181;-49
2021/12/20 06:39:57;;;;;;;95.07;12.07;;;0.40;99.90;;;;;;5013631;28;20216;-49
2021/12/20 06:42:23;;;;;;;58.37;7.57;;;0.70;99.90;;;;;;5017452;28;20275;-49
2021/12/20 06:44:48;;;;;;;59.43;7.93;;;0.40;99.90;;;;;;5011060;28;20187;-49
2021/12/20 06:47:16;;;;;;;54.90;7.37;;;0.30;99.90;;;;;;5012545;28;20193;-49
2021/12/20 06:49:41;;;;;;;62.00;8.10;;;0.80;99.90;;;;;;5015787;28;20185;-49
2021/12/20 06:52:07;;;;;;;112.23;14.13;;;0.20;99.90;;;;;;5014478;28;20208;-49
2021/12/20 06:54:33;;;;;;;73.67;9.43;;;0.80;99.90;;;;;;5015607;28;20192;-48
2021/12/20 06:56:58;;;;;;;87.93;11.20;;;-0.40;99.90;;;;;;5017738;28;20690;-49
2021/12/20 06:59:24;;;;;;;38.83;5.50;;;0.70;99.90;;;;;;5014760;28;20354;-49
2021/12/20 07:01:50;;;;;;;66.10;8.33;;;0.50;99.90;;;;;;5014026;28;20255;-49
2021/12/20 07:04:15;;;;;;;43.70;6.03;;;0.20;99.90;;;;;;5012615;28;20184;-49
2021/12/20 07:06:42;;;;;;;60.77;8.10;;;0.70;99.90;;;;;;5020399;28;20189;-49
2021/12/20 07:09:08;;;;;;;53.40;7.13;;;0.50;99.90;;;;;;5015384;28;20279;-49
2021/12/20 07:11:34;;;;;;;70.10;9.13;;;;;;;;;;5016866;28;20185;-50
2021/12/20 07:14:00;;;;;;;87.37;11.13;;;0.20;99.90;;;;;;5013292;28;20246;-49
2021/12/20 07:16:26;;;;;;;62.50;8.00;;;0.20;99.90;;;;;;5015063;28;20200;-50
2021/12/20 07:18:51;;;;;;;53.67;7.07;;;0.60;99.90;;;;;;5016726;28;20257;-49
2021/12/20 07:21:18;;;;;;;82.93;10.27;;;;;;;;;;5017793;28;20184;-49
2021/12/20 07:23:44;;;;;;;83.03;10.90;;;;;;;;;;5011711;28;20572;-49
2021/12/20 07:26:11;;;;;;;57.67;7.57;;;;;;;;;;5017503;28;20184;-49
2021/12/20 07:28:37;;;;;;;110.10;13.90;;;;;;;;;;5017724;28;20664;-49
2021/12/20 07:31:03;;;;;;;82.87;10.47;;;;;;;;;;5016895;28;20196;-49
2021/12/20 07:33:29;;;;;;;81.80;10.40;;;;;;;;;;5014936;28;20258;-49
2021/12/20 07:35:55;;;;;;;56.47;7.63;;;;;;;;;;5015396;28;20703;-49
2021/12/20 07:38:22;;;;;;;155.47;21.13;;;;;;;;;;5006257;28;20212;-49
2021/12/20 07:40:49;;;;;;;67.23;8.90;;;;;;;;;;5014119;28;20187;-49
2021/12/20 07:43:17;;;;;;;153.47;19.07;;;;;;;;;;5011596;28;20262;-49
2021/12/20 07:45:49;;;;;;;108.13;13.90;;;0.40;99.90;;;;;;4994542;28;20222;-49
2021/12/20 07:48:19;;;;;;;29.53;4.13;;;;;;;;;;5000998;28;20386;-48
2021/12/20 07:50:48;;;;;;;117.17;14.77;;;;;;;;;;5007774;28;20191;-49
2021/12/20 07:53:15;;;;;;;96.20;12.40;;;;;;;;;;5011851;28;20576;-48
2021/12/20 07:55:41;;;;;;;70.30;9.07;;;;;;;;;;5011319;28;20295;-48
2021/12/20 07:58:09;;;;;;;107.90;13.37;;;;;;;;;;5017382;28;20192;-49
2021/12/20 08:00:38;;;;;;;105.83;13.00;;;;;;;;;;5006084;28;20254;-49
2021/12/20 08:03:04;;;;;;;112.70;14.33;;;;;;;;;;4992684;28;20810;-49
2021/12/20 08:05:30;;;;;;;164.13;19.37;;;;;;;;;;5005927;28;20203;-49
2021/12/20 08:07:56;;;;;;;103.83;12.77;;;;;;;;;;5007423;28;20188;-49
2021/12/20 08:10:25;;;;;;;72.40;9.17;;;;;;;;;;5015752;28;20189;-49
2021/12/20 08:12:52;;;;;;;111.50;14.00;;;;;;;;;;5009522;28;20208;-49
2021/12/20 08:15:19;;;;;;;78.17;9.83;;;;;;;;;;5009174;28;20192;-49
2021/12/20 08:17:46;;;;;;;129.83;15.83;;;1.00;99.90;;;;;;5010136;28;20279;-49
2021/12/20 08:20:13;;;;;;;123.43;14.83;;;;;;;;;;5010424;28;20212;-49
2021/12/20 08:22:39;;;;;;;97.67;12.27;;;1.20;99.90;;;;;;5007048;28;20603;-49
2021/12/20 08:25:08;;;;;;;70.07;8.97;;;1.10;99.90;;;;;;5010868;28;20307;-49
2021/12/20 08:27:34;;;;;;;92.53;11.57;;;;;;;;;;5016279;28;20184;-50
2021/12/20 08:30:00;;;;;;;185.43;22.40;;;1.10;99.90;;;;;;5004936;28;20180;-50
2021/12/20 08:32:27;;;;;;;85.73;10.90;;;1.00;99.90;;;;;;5010803;28;20208;-49
2021/12/20 08:34:55;;;;;;;89.23;11.33;;;1.00;99.90;;;;;;5010619;28;20188;-50
2021/12/20 08:37:21;;;;;;;176.00;21.40;;;1.00;99.90;;;;;;5004945;28;20298;-49
2021/12/20 08:39:47;;;;;;;94.00;12.03;;;;;;;;;;5012703;28;20188;-49
2021/12/20 08:42:12;;;;;;;82.77;10.63;;;0.90;99.90;;;;;;5012528;28;21128;-48
2021/12/20 08:44:38;;;;;;;118.47;14.47;;;;;;;;;;5006025;28;20584;-49
2021/12/20 08:47:04;;;;;;;103.83;13.03;;;;;;;;;;5013374;28;20291;-48
2021/12/20 08:49:30;;;;;;;47.20;6.03;;;1.00;99.90;;;;;;5017670;28;20207;-48
2021/12/20 08:51:58;;;;;;;81.40;10.33;;;;;;;;;;5012745;28;20203;-49
2021/12/20 08:54:27;;;;;;;75.50;9.83;;;1.10;99.90;;;;;;5010109;28;20188;-49
2021/12/20 08:56:53;;;;;;;93.13;11.63;;;1.10;99.90;;;;;;4990714;28;20216;-48
2021/12/20 08:59:19;;;;;;;86.43;10.93;;;1.20;99.90;;;;;;5010789;28;20184;-48
2021/12/20 09:01:45;;;;;;;131.87;16.33;;;;;;;;;;5004799;28;20214;-49
2021/12/20 09:04:11;;;;;;;110.70;13.63;;;1.20;99.90;;;;;;5010591;28;20922;-49
2021/12/20 09:06:42;;;;;;;107.60;13.53;;;1.10;99.90;;;;;;5013723;28;20196;-50
2021/12/20 09:09:08;;;;;;;216.53;26.87;;;;;;;;;;5010388;28;20259;-48
2021/12/20 09:11:34;;;;;;;148.20;19.77;;;;;;;;;;4990635;28;20196;-49
2021/12/20 09:14:00;;;;;;;131.80;16.03;;;;;;;;;;4987312;28;20224;-49
2021/12/20 09:16:26;;;;;;;124.43;14.80;;;1.30;99.90;;;;;;5000282;28;20298;-50
2021/12/20 09:18:52;;;;;;;78.03;9.57;;;1.40;99.90;;;;;;5016084;28;20783;-49
2021/12/20 09:21:19;;;;;;;92.70;11.03;;;;;;;;;;5007802;28;20180;-49
2021/12/20 09:23:45;;;;;;;98.60;12.33;;;;;;;;;;5008033;28;20246;-48
2021/12/20 09:26:11;;;;;;;103.53;12.77;;;1.50;99.90;;;;;;5003540;28;20188;-48
2021/12/20 09:28:37;;;;;;;109.13;13.53;;;1.50;99.90;;;;;;5010324;28;20584;-48
2021/12/20 09:31:05;;;;;;;198.67;23.73;;;1.60;99.90;;;;;;4983675;28;20192;-48
2021/12/20 09:33:32;;;;;;;237.27;29.47;;;;;;;;;;4989287;28;20211;-48
2021/12/20 09:35:59;;;;;;;91.17;11.20;;;;;;;;;;5001606;28;20208;-49
2021/12/20 09:38:25;;;;;;;155.57;18.73;;;;;;;;;;4985103;28;20298;-48
2021/12/20 09:43:48;;;;;;;269.43;34.67;;;2.10;99.90;;;;;;5002228;28;20214;-49
2021/12/20 09:46:16;;;;;;;178.80;22.07;;;2.60;99.90;;;;;;5013367;28;20189;-49
2021/12/20 09:48:47;;;;;;;130.90;15.90;;;2.10;99.90;;;;;;5015879;28;20188;-49
2021/12/20 09:51:13;;;;;;;102.27;12.50;;;2.30;99.90;;;;;;5014640;28;20192;-49
2021/12/20 09:53:40;;;;;;;115.87;14.47;;;2.30;99.90;;;;;;4993554;28;20240;-48
2021/12/20 09:56:07;;;;;;;76.43;9.67;;;;;;;;;;5001251;28;20223;-49
2021/12/20 09:58:38;;;;;;;148.73;18.47;;;2.40;99.90;;;;;;5013987;28;20995;-49
2021/12/20 10:01:08;;;;;;;122.30;15.90;;;2.30;99.90;;;;;;5017280;28;20547;-48
2021/12/20 10:03:35;;;;;;;85.13;10.90;;;2.40;99.90;;;;;;5015874;28;20211;-48
2021/12/20 10:06:01;;;;;;;147.57;18.73;;;2.50;99.90;;;;;;5017838;28;20196;-48
2021/12/20 10:08:36;;;;;;;132.80;16.60;;;2.50;99.90;;;;;;4987672;28;20205;-48
2021/12/20 10:11:16;;;;;;;92.67;11.77;;;2.60;99.90;;;;;;5012817;28;20210;-49
2021/12/20 10:13:44;;;;;;;103.60;12.90;;;2.60;99.90;;;;;;4998192;28;20525;-48
2021/12/20 10:16:21;;;;;;;143.83;18.17;;;2.40;99.90;;;;;;5006577;28;20208;-49
2021/12/20 10:18:49;;;;;;;97.67;12.40;;;2.60;99.90;;;;;;4998237;28;21061;-49
2021/12/20 10:21:16;;;;;;;79.90;10.10;;;2.60;99.90;;;;;;5012481;28;20181;-48
2021/12/20 10:23:46;;;;;;;64.30;8.60;;;;;;;;;;5002484;28;20180;-48
2021/12/20 10:26:19;;;;;;;102.97;13.47;;;;;;;;;;5016527;28;20303;-48
2021/12/20 10:28:46;;;;;;;144.30;18.07;;;;;;;;;;5015176;28;22504;-49
2021/12/20 10:31:21;;;;;;;80.17;10.63;;;2.80;99.90;;;;;;5018609;28;20184;-49
2021/12/20 10:34:02;;;;;;;69.23;9.37;;;2.90;99.90;;;;;;5017585;28;20188;-47
2021/12/20 10:36:31;;;;;;;72.40;9.43;;;3.00;99.90;;;;;;5019103;28;20199;-49
2021/12/20 10:38:59;;;;;;;106.47;14.00;;;2.90;99.90;;;;;;5013469;28;20188;-49
2021/12/20 10:41:33;;;;;;;114.57;14.77;;;;;;;;;;5016355;28;20539;-49
2021/12/20 10:44:02;;;;;;;95.80;12.57;;;3.00;99.90;;;;;;5014172;28;20276;-49
2021/12/20 10:46:34;;;;;;;63.00;8.40;;;;;;;;;;5019932;28;20670;-49
2021/12/20 10:49:08;;;;;;;75.87;10.20;;;3.10;99.90;;;;;;5017944;28;20227;-49
2021/12/20 10:51:34;;;;;;;95.40;12.50;;;;;;;;;;5014952;28;20180;-50
2021/12/20 10:54:02;;;;;;;95.83;12.63;;;3.20;99.90;;;;;;5016440;28;20189;-49
2021/12/20 10:56:32;;;;;;;67.30;8.80;;;3.20;99.90;;;;;;5017845;28;20208;-48
2021/12/20 10:59:01;;;;;;;116.13;15.17;;;3.30;99.90;;;;;;5012478;28;20184;-49
2021/12/20 11:04:12;;;;;;;115.30;14.93;;;3.30;99.90;;;;;;5013440;28;20219;-49
2021/12/20 11:09:18;;;;;;;228.17;30.67;;;3.40;99.90;;;;;;5009204;28;20202;-49
2021/12/20 11:11:46;;;;;;;90.43;11.80;;;3.50;99.90;;;;;;5017682;28;20636;-49
2021/12/20 11:14:13;;;;;;;87.17;11.90;;;3.50;99.90;;;;;;5013642;28;20501;-49
2021/12/20 11:16:49;;;;;;;70.07;9.37;;;3.60;99.90;;;;;;5017695;28;20311;-48
2021/12/20 11:19:26;;;;;;;78.87;10.57;;;3.10;99.90;;;;;;5018014;28;20191;-49
2021/12/20 11:22:22;;;;;;;90.00;11.73;;;3.70;99.90;;;;;;5018745;28;20373;-48
2021/12/20 11:24:55;;;;;;;90.10;11.83;;;3.90;99.90;;;;;;5000403;28;20259;-49
2021/12/20 11:27:32;;;;;;;63.07;8.57;;;4.10;99.90;;;;;;5020875;28;20619;-49
2021/12/20 11:30:07;;;;;;;149.20;20.03;;;4.00;99.90;;;;;;5013801;28;20536;-49
2021/12/20 11:32:35;;;;;;;61.53;8.70;;;4.10;99.90;;;;;;5008187;28;20395;-48
2021/12/20 11:35:01;;;;;;;75.23;10.20;;;3.90;99.90;;;;;;5014557;28;20187;-49
2021/12/20 11:37:28;;;;;;;91.83;12.40;;;3.90;99.90;;;;;;5005563;28;20687;-49
2021/12/20 11:39:56;;;;;;;81.47;10.80;;;;;;;;;;5033684;28;20198;-49
2021/12/20 11:42:23;;;;;;;76.07;10.20;;;;;;;;;;5018788;28;20379;-48
2021/12/20 11:44:55;;;;;;;78.67;10.23;;;3.50;99.90;;;;;;5009010;28;20188;-48
2021/12/20 11:47:20;;;;;;;80.20;10.63;;;3.60;99.90;;;;;;5018933;28;20652;-49
2021/12/20 11:50:07;;;;;;;55.00;7.63;;;3.60;99.90;;;;;;5019693;28;20198;-49
2021/12/20 11:52:38;;;;;;;82.17;10.77;;;3.70;99.90;;;;;;4999545;28;20215;-49
2021/12/20 11:55:14;;;;;;;110.23;14.63;;;3.60;99.90;;;;;;5014958;28;20195;-48
2021/12/20 11:57:44;;;;;;;64.30;8.50;;;4.10;99.90;;;;;;5018583;28;20212;-49
2021/12/20 12:00:18;;;;;;;51.40;7.17;;;4.30;99.90;;;;;;5014172;28;20255;-49
2021/12/20 12:02:47;;;;;;;55.17;7.50;;;4.60;99.90;;;;;;5020239;28;20230;-49
2021/12/20 12:05:17;;;;;;;69.23;9.33;;;4.60;99.90;;;;;;5016389;28;20184;-49
2021/12/20 12:07:46;;;;;;;71.17;9.53;;;4.70;99.90;;;;;;5010699;28;20970;-49
2021/12/20 12:10:18;;;;;;;84.77;11.20;;;4.80;99.90;;;;;;5017566;28;20239;-49
2021/12/20 12:12:47;;;;;;;54.23;7.57;;;4.80;99.90;;;;;;5021334;28;20429;-49
2021/12/20 12:15:39;;;;;;;85.37;11.27;;;4.90;99.90;;;;;;5014972;28;20188;-49
2021/12/20 12:18:10;;;;;;;61.73;8.60;;;5.20;99.90;;;;;;5017655;28;20176;-49
2021/12/20 12:20:51;;;;;;;86.77;11.63;;;5.50;99.90;;;;;;5017530;28;20184;-49
2021/12/20 12:23:27;;;;;;;144.90;19.17;;;5.40;99.90;;;;;;5017349;28;20199;-50
2021/12/20 12:26:05;;;;;;;63.80;8.77;;;5.40;99.90;;;;;;5017912;28;20196;-49
2021/12/20 12:28:58;;;;;;;161.23;20.53;;;4.80;99.90;;;;;;5016976;28;20180;-49
2021/12/20 12:31:25;;;;;;;95.47;12.80;;;4.80;99.90;;;;;;5016971;28;20196;-49
2021/12/20 12:34:11;;;;;;;74.13;10.13;;;4.70;99.90;;;;;;5013566;28;20591;-49
2021/12/20 12:36:43;;;;;;;118.33;15.70;;;4.50;99.90;;;;;;4985902;28;20958;-48
2021/12/20 12:39:18;;;;;;;87.50;11.57;;;4.50;99.90;;;;;;5014795;28;20850;-49
2021/12/20 12:41:47;;;;;;;65.07;8.83;;;4.40;99.90;;;;;;5021716;28;20373;-48
2021/12/20 12:44:24;;;;;;;95.43;12.50;;;4.40;99.90;;;;;;5005150;28;20878;-49
2021/12/20 12:47:03;;;;;;;57.53;7.83;;;4.20;99.90;;;;;;5015158;28;20241;-49
2021/12/20 12:49:34;;;;;;;92.37;12.07;;;4.20;99.90;;;;;;5013469;28;20676;-49
2021/12/20 12:52:00;;;;;;;151.27;20.13;;;;;;;;;;5007744;28;20837;-51
2021/12/20 12:54:32;;;;;;;112.33;15.07;;;4.30;99.90;;;;;;5000869;28;20592;-51
2021/12/20 12:57:18;;;;;;;231.83;33.07;;;4.60;99.90;;;;;;5005890;28;20251;-51
2021/12/20 12:59:49;;;;;;;141.07;18.40;;;5.70;99.90;;;;;;4973016;28;20608;-49
2021/12/20 13:02:23;;;;;;;163.90;21.80;;;4.90;99.90;;;;;;5005603;28;20224;-49
2021/12/20 13:04:53;;;;;;;121.60;16.80;;;5.30;99.90;;;;;;5006355;28;20179;-49
2021/12/20 13:07:22;;;;;;;81.93;11.83;;;6.20;99.90;;;;;;5013134;28;20545;-50
2021/12/20 13:09:49;;;;;;;124.17;17.90;;;7.00;99.90;;;;;;5010884;28;21836;-50
2021/12/20 13:12:25;;;;;;;76.30;11.33;;;7.50;99.90;;;;;;5010952;28;20295;-49
2021/12/20 13:15:11;;;;;;;71.73;10.67;;;7.90;99.90;;;;;;5007188;28;20238;-50
2021/12/20 13:17:54;;;;;;;78.23;12.13;;;8.10;99.90;;;;;;5032288;28;20208;-49
2021/12/20 13:20:40;;;;;;;168.10;25.53;;;8.30;99.90;;;;;;5010906;28;20198;-50
2021/12/20 13:23:16;;;;;;;125.23;20.47;;;8.20;99.90;;;;;;5003562;28;20204;-50
2021/12/20 13:25:49;;;;;;;162.37;27.07;;;8.30;99.90;;;;;;5014602;28;20206;-50
2021/12/20 13:28:31;;;;;;;99.67;17.93;;;8.30;99.90;;;;;;5012816;28;20486;-50
2021/12/20 13:31:26;;;;;;;118.47;21.90;;;8.20;99.90;;;;;;5017907;28;20176;-49
2021/12/20 13:33:54;;;;;;;67.13;12.40;;;8.10;99.90;;;;;;5010223;28;20603;-49